Time;durP1;ratioP1;P1;durP2;ratioP2;P2;SDS_P1;SDS_P2;PMS_P1;PMS_P2;Temp;Humidity;BMP_temperature;BMP_pressure;BME280_temperature;BME280_humidity;BME280_pressure;Samples;Min_cycle;Max_cycle;Signal;HPM_P1;HPM_P2
2022/06/11 00:01:22;;;;;;;2.87;2.57;;;16.90;62.80;;;;;;954186;147;27320;-76
2022/06/11 00:03:49;;;;;;;3.53;2.07;;;16.90;63.00;;;;;;954110;147;27455;-75
2022/06/11 00:06:16;;;;;;;3.30;2.67;;;16.90;63.10;;;;;;953428;147;27758;-76
2022/06/11 00:08:43;;;;;;;2.83;2.63;;;16.80;63.30;;;;;;953899;147;27752;-76
2022/06/11 00:11:09;;;;;;;3.83;2.20;;;16.80;63.50;;;;;;954348;147;27378;-76
2022/06/11 00:13:35;;;;;;;4.63;3.03;;;16.80;63.60;;;;;;954276;147;27643;-76
2022/06/11 00:16:02;;;;;;;2.60;2.40;;;16.70;63.80;;;;;;954275;147;27429;-76
2022/06/11 00:18:28;;;;;;;3.03;2.27;;;16.70;63.90;;;;;;954117;147;27670;-76
2022/06/11 00:20:55;;;;;;;3.93;2.93;;;16.70;64.20;;;;;;953682;147;27313;-75
2022/06/11 00:23:22;;;;;;;2.50;2.30;;;16.60;64.30;;;;;;953826;147;27401;-76
2022/06/11 00:25:48;;;;;;;2.87;2.43;;;16.60;64.50;;;;;;953943;147;27313;-77
2022/06/11 00:28:15;;;;;;;4.57;2.60;;;16.50;64.50;;;;;;953377;147;27325;-76
2022/06/11 00:30:41;;;;;;;4.00;2.73;;;16.50;64.50;;;;;;954092;147;27345;-76
2022/06/11 00:33:08;;;;;;;3.07;2.47;;;16.50;64.70;;;;;;954369;147;27457;-76
2022/06/11 00:35:35;;;;;;;4.13;2.57;;;16.50;64.90;;;;;;953874;147;27402;-76
2022/06/11 00:38:01;;;;;;;2.70;2.50;;;16.40;65.00;;;;;;953926;147;27430;-77
2022/06/11 00:40:28;;;;;;;3.80;2.43;;;16.40;65.00;;;;;;953903;147;27243;-76
2022/06/11 00:42:54;;;;;;;2.97;2.50;;;16.40;65.20;;;;;;954261;147;27732;-76
2022/06/11 00:45:30;;;;;;;3.30;2.90;;;16.30;65.30;;;;;;953793;147;27940;-76
2022/06/11 00:48:00;;;;;;;2.93;2.40;;;16.30;65.40;;;;;;954251;147;27317;-76
2022/06/11 00:50:44;;;;;;;2.43;2.23;;;16.30;65.40;;;;;;953372;147;27390;-76
2022/06/11 00:53:11;;;;;;;2.70;2.50;;;16.30;65.50;;;;;;953997;147;27949;-76
2022/06/11 00:55:38;;;;;;;2.70;2.40;;;16.20;65.50;;;;;;950922;147;27294;-76
2022/06/11 00:58:10;;;;;;;3.10;2.90;;;16.20;65.80;;;;;;954069;147;27368;-76
2022/06/11 01:00:41;;;;;;;7.57;2.67;;;16.20;66.00;;;;;;954232;147;27324;-76
2022/06/11 01:03:03;;;;;;;2.67;2.47;;;16.10;66.20;;;;;;953010;147;27403;-76
2022/06/11 01:05:30;;;;;;;3.13;2.53;;;16.10;66.30;;;;;;953632;147;27363;-76
2022/06/11 01:08:08;;;;;;;2.50;2.30;;;16.10;66.20;;;;;;953609;147;27454;-76
2022/06/11 01:10:35;;;;;;;2.93;2.63;;;16.10;65.80;;;;;;953798;147;27418;-76
2022/06/11 01:13:20;;;;;;;5.47;2.90;;;16.10;66.50;;;;;;947391;147;27417;-76
2022/06/11 01:15:49;;;;;;;3.43;2.60;;;16.00;66.50;;;;;;953789;147;27441;-76
2022/06/11 01:18:38;;;;;;;3.33;2.50;;;16.00;66.60;;;;;;953354;147;27426;-76
2022/06/11 01:21:28;;;;;;;2.53;2.33;;;15.90;66.90;;;;;;954330;147;27316;-76
2022/06/11 01:24:03;;;;;;;2.60;2.40;;;15.90;66.80;;;;;;954486;147;27294;-76
2022/06/11 01:26:42;;;;;;;3.17;2.63;;;15.80;66.80;;;;;;952752;147;27432;-76
2022/06/11 01:29:11;;;;;;;4.10;2.40;;;15.80;67.10;;;;;;952599;147;27373;-75
2022/06/11 01:31:53;;;;;;;3.57;2.40;;;15.80;67.20;;;;;;953938;147;27341;-76
2022/06/11 01:34:38;;;;;;;3.03;2.40;;;15.80;67.50;;;;;;954261;147;27329;-76
2022/06/11 01:37:05;;;;;;;4.00;2.90;;;15.70;67.50;;;;;;953782;147;27380;-76
2022/06/11 01:39:56;;;;;;;3.10;2.90;;;15.70;67.50;;;;;;953522;147;27422;-76
2022/06/11 01:42:31;;;;;;;3.00;2.80;;;15.60;67.60;;;;;;952479;147;27340;-76
2022/06/11 01:45:16;;;;;;;3.07;2.80;;;15.60;67.60;;;;;;953317;147;27434;-76
2022/06/11 01:47:43;;;;;;;3.07;2.77;;;15.60;67.90;;;;;;953270;150;27414;-75
2022/06/11 01:50:10;;;;;;;3.20;2.77;;;15.50;67.90;;;;;;954147;148;27329;-76
2022/06/11 01:52:42;;;;;;;3.43;2.80;;;15.40;68.10;;;;;;953644;147;27326;-76
2022/06/11 01:55:39;;;;;;;3.43;2.57;;;15.40;68.50;;;;;;954180;147;27416;-76
2022/06/11 01:58:43;;;;;;;3.67;3.37;;;15.40;68.60;;;;;;954176;147;27391;-76
2022/06/11 02:01:12;;;;;;;3.50;2.83;;;15.30;68.70;;;;;;954518;147;27414;-77
2022/06/11 02:03:57;;;;;;;3.97;3.07;;;15.30;68.70;;;;;;953875;147;27389;-76
2022/06/11 02:06:41;;;;;;;3.43;3.00;;;15.20;69.20;;;;;;953426;147;27340;-76
2022/06/11 02:09:33;;;;;;;2.87;2.67;;;15.20;69.50;;;;;;954514;147;27461;-76
2022/06/11 02:12:11;;;;;;;3.63;2.50;;;15.10;69.30;;;;;;954296;147;27764;-76
2022/06/11 02:14:50;;;;;;;2.80;2.60;;;15.10;69.50;;;;;;953822;147;27391;-76
2022/06/11 02:17:17;;;;;;;3.93;2.80;;;15.00;69.60;;;;;;953664;147;27430;-76
2022/06/11 02:19:46;;;;;;;3.77;2.80;;;15.00;69.90;;;;;;952976;147;27327;-76
2022/06/11 02:22:12;;;;;;;2.97;2.67;;;14.90;70.10;;;;;;953596;147;27426;-76
2022/06/11 02:24:39;;;;;;;4.23;2.83;;;14.90;70.20;;;;;;954169;147;27360;-76
2022/06/11 02:27:05;;;;;;;4.30;3.37;;;14.90;70.40;;;;;;953650;147;27333;-76
2022/06/11 02:29:32;;;;;;;3.70;2.93;;;14.90;70.60;;;;;;953969;147;27341;-77
2022/06/11 02:32:04;;;;;;;3.13;2.90;;;14.80;70.80;;;;;;953992;147;27241;-77
2022/06/11 02:34:31;;;;;;;5.10;3.00;;;14.80;71.00;;;;;;953821;147;27364;-76
2022/06/11 02:37:00;;;;;;;3.50;3.07;;;14.80;71.10;;;;;;954054;147;27661;-77
2022/06/11 02:39:27;;;;;;;3.00;2.70;;;14.80;71.30;;;;;;953504;147;27469;-76
2022/06/11 02:41:54;;;;;;;4.10;3.37;;;14.70;71.30;;;;;;953794;147;27302;-77
2022/06/11 02:44:20;;;;;;;4.80;2.90;;;14.70;71.50;;;;;;953678;147;27398;-77
2022/06/11 02:46:47;;;;;;;3.33;3.00;;;14.70;71.70;;;;;;954532;147;27422;-77
2022/06/11 02:49:16;;;;;;;2.90;2.70;;;14.70;71.90;;;;;;953545;147;28577;-77
2022/06/11 02:51:43;;;;;;;2.97;2.70;;;14.70;72.10;;;;;;954000;147;27325;-77
2022/06/11 02:54:09;;;;;;;4.50;3.13;;;14.70;72.30;;;;;;953772;147;27290;-77
2022/06/11 02:56:36;;;;;;;3.80;3.17;;;14.60;72.30;;;;;;954161;147;27393;-77
2022/06/11 02:59:02;;;;;;;3.30;3.00;;;14.60;72.40;;;;;;954133;147;27328;-78
2022/06/11 03:01:29;;;;;;;3.50;3.07;;;14.60;72.60;;;;;;954593;147;27827;-78
2022/06/11 03:03:55;;;;;;;3.10;2.80;;;14.60;72.70;;;;;;954318;147;27360;-78
2022/06/11 03:06:22;;;;;;;3.17;2.87;;;14.60;73.00;;;;;;946470;148;27311;-78
2022/06/11 03:08:49;;;;;;;5.90;3.00;;;14.60;73.00;;;;;;946506;149;27407;-78
2022/06/11 03:11:15;;;;;;;3.30;3.10;;;14.60;73.20;;;;;;937987;150;27381;-78
2022/06/11 03:13:42;;;;;;;3.40;3.07;;;14.60;73.30;;;;;;954123;147;28029;-78
2022/06/11 03:16:08;;;;;;;3.80;2.93;;;14.60;73.50;;;;;;954294;147;27309;-78
2022/06/11 03:18:35;;;;;;;3.10;2.83;;;14.50;73.60;;;;;;953950;147;27325;-78
2022/06/11 03:21:02;;;;;;;4.87;3.47;;;14.50;73.80;;;;;;954555;147;27324;-78
2022/06/11 03:23:29;;;;;;;4.03;2.93;;;14.50;73.90;;;;;;954183;147;27796;-78
2022/06/11 03:25:55;;;;;;;3.40;3.10;;;14.50;74.10;;;;;;946601;148;27456;-78
2022/06/11 03:28:22;;;;;;;3.20;3.00;;;14.50;74.30;;;;;;938051;149;27407;-78
2022/06/11 03:30:48;;;;;;;3.30;3.00;;;14.50;74.40;;;;;;954376;147;27312;-78
2022/06/11 03:33:15;;;;;;;3.20;2.67;;;14.50;74.70;;;;;;954350;147;27333;-78
2022/06/11 03:35:43;;;;;;;2.93;2.73;;;14.50;74.80;;;;;;945963;148;27456;-78
2022/06/11 03:38:08;;;;;;;3.20;2.90;;;14.50;75.00;;;;;;954153;147;27481;-78
2022/06/11 03:40:34;;;;;;;4.60;2.97;;;14.50;75.00;;;;;;953763;147;27255;-78
2022/06/11 03:43:01;;;;;;;3.90;2.83;;;14.50;75.00;;;;;;953808;147;27329;-78
2022/06/11 03:45:27;;;;;;;3.37;3.00;;;14.50;75.20;;;;;;953636;147;27423;-78
2022/06/11 03:47:54;;;;;;;3.13;2.87;;;14.60;75.50;;;;;;954021;147;27441;-78
2022/06/11 03:50:21;;;;;;;3.40;3.10;;;14.60;75.70;;;;;;954450;147;27331;-78
2022/06/11 03:52:47;;;;;;;3.30;3.00;;;14.60;75.80;;;;;;953635;147;27349;-78
2022/06/11 03:55:14;;;;;;;3.30;3.00;;;14.70;76.10;;;;;;954200;147;27428;-78
2022/06/11 03:57:40;;;;;;;3.17;2.87;;;14.70;76.40;;;;;;954312;147;27394;-78
2022/06/11 04:00:07;;;;;;;4.27;2.90;;;14.80;76.60;;;;;;954446;147;27313;-78
2022/06/11 04:02:34;;;;;;;3.43;3.13;;;14.90;77.00;;;;;;953625;147;27266;-78
2022/06/11 04:05:00;;;;;;;3.30;3.00;;;15.00;77.20;;;;;;954296;147;27438;-78
2022/06/11 04:07:27;;;;;;;3.00;2.80;;;15.10;77.20;;;;;;954606;147;27337;-78
2022/06/11 04:09:54;;;;;;;4.03;2.87;;;15.20;77.30;;;;;;954390;147;27319;-78
2022/06/11 04:12:20;;;;;;;3.30;3.00;;;15.40;77.30;;;;;;953916;147;27414;-78
2022/06/11 04:14:47;;;;;;;2.60;2.40;;;15.50;77.40;;;;;;953948;147;27452;-78
2022/06/11 04:17:29;;;;;;;3.07;2.77;;;15.60;77.20;;;;;;953784;147;27341;-78
2022/06/11 04:19:55;;;;;;;3.23;2.63;;;15.80;76.90;;;;;;952469;147;27389;-78
2022/06/11 04:22:22;;;;;;;3.93;2.73;;;15.90;76.50;;;;;;952734;147;27423;-78
2022/06/11 04:24:48;;;;;;;3.40;2.90;;;16.00;76.50;;;;;;954325;147;27414;-78
2022/06/11 04:27:15;;;;;;;3.03;2.53;;;16.20;76.60;;;;;;954292;147;27308;-78
2022/06/11 04:29:42;;;;;;;4.13;2.37;;;16.30;76.30;;;;;;953987;147;27312;-78
2022/06/11 04:32:08;;;;;;;3.10;2.80;;;16.40;76.10;;;;;;953235;147;27349;-78
2022/06/11 04:34:35;;;;;;;4.13;2.67;;;16.50;76.00;;;;;;954129;147;27377;-78
2022/06/11 04:37:01;;;;;;;3.30;2.63;;;16.60;75.80;;;;;;954241;147;27348;-78
2022/06/11 04:39:28;;;;;;;2.40;2.20;;;16.70;75.70;;;;;;954009;147;27312;-78
2022/06/11 04:41:54;;;;;;;3.83;2.83;;;16.80;75.50;;;;;;954819;147;27302;-78
2022/06/11 04:44:21;;;;;;;2.53;2.33;;;16.90;75.30;;;;;;954397;147;27301;-78
2022/06/11 04:46:48;;;;;;;3.00;2.70;;;17.00;75.20;;;;;;954424;147;27438;-78
2022/06/11 04:49:14;;;;;;;3.10;2.83;;;17.10;75.10;;;;;;954100;147;27421;-78
2022/06/11 04:51:41;;;;;;;3.47;2.97;;;17.20;74.90;;;;;;953866;147;27250;-78
2022/06/11 04:54:07;;;;;;;3.10;2.90;;;17.20;74.80;;;;;;954316;147;27316;-78
2022/06/11 04:56:34;;;;;;;3.20;2.90;;;17.30;74.60;;;;;;953952;147;27386;-79
2022/06/11 04:59:01;;;;;;;2.83;2.62;;;17.50;74.60;;;;;;954590;147;27332;-78
2022/06/11 05:01:27;;;;;;;3.10;2.70;;;17.50;74.40;;;;;;953876;147;28713;-78
2022/06/11 05:03:54;;;;;;;2.87;2.67;;;17.60;74.40;;;;;;954318;147;27413;-79
2022/06/11 05:06:20;;;;;;;2.85;2.62;;;17.70;74.30;;;;;;954118;147;27387;-78
2022/06/11 05:08:47;;;;;;;2.55;2.33;;;17.80;74.20;;;;;;954012;147;27332;-78
2022/06/11 05:11:14;;;;;;;2.58;2.37;;;17.90;74.00;;;;;;954290;147;27368;-78
2022/06/11 05:13:40;;;;;;;2.47;2.27;;;18.00;73.90;;;;;;953560;147;27352;-78
2022/06/11 05:16:07;;;;;;;2.62;2.42;;;18.20;73.70;;;;;;954049;147;27342;-78
2022/06/11 05:18:33;;;;;;;2.67;2.47;;;18.30;73.70;;;;;;953605;147;27333;-78
2022/06/11 05:21:00;;;;;;;2.50;2.00;;;18.40;73.50;;;;;;953601;147;27305;-78
2022/06/11 05:23:26;;;;;;;2.58;2.37;;;18.50;73.30;;;;;;954189;147;27829;-78
2022/06/11 05:25:53;;;;;;;3.17;2.35;;;18.60;73.20;;;;;;954179;147;27414;-78
2022/06/11 05:28:20;;;;;;;2.72;2.50;;;18.70;72.90;;;;;;953465;147;28836;-78
2022/06/11 05:30:46;;;;;;;3.92;3.62;;;18.90;72.80;;;;;;953689;147;27313;-78
2022/06/11 05:33:13;;;;;;;2.55;2.27;;;19.00;72.60;;;;;;954579;147;27305;-78
2022/06/11 05:35:40;;;;;;;2.58;2.37;;;19.20;72.50;;;;;;954734;147;27430;-78
2022/06/11 05:38:06;;;;;;;2.40;2.30;;;19.30;72.40;;;;;;954356;147;27332;-78
2022/06/11 05:40:33;;;;;;;2.22;2.08;;;19.60;72.20;;;;;;954215;147;27426;-78
2022/06/11 05:42:59;;;;;;;2.55;2.27;;;19.70;72.00;;;;;;954085;147;27418;-78
2022/06/11 05:45:26;;;;;;;4.75;2.27;;;19.90;71.50;;;;;;953680;147;28410;-78
2022/06/11 05:47:53;;;;;;;2.83;2.60;;;20.10;71.00;;;;;;953824;148;27282;-79
2022/06/11 05:50:19;;;;;;;2.22;2.02;;;20.30;70.80;;;;;;954015;148;27310;-78
2022/06/11 05:52:46;;;;;;;2.58;2.37;;;20.40;70.40;;;;;;953336;147;27329;-78
2022/06/11 05:55:12;;;;;;;2.50;2.30;;;20.70;70.30;;;;;;953996;147;27304;-79
2022/06/11 05:57:39;;;;;;;3.20;2.62;;;20.90;70.00;;;;;;953590;147;27461;-79
2022/06/11 06:00:06;;;;;;;2.30;2.10;;;21.10;69.90;;;;;;954064;147;27305;-79
2022/06/11 06:02:32;;;;;;;3.02;2.35;;;21.40;70.00;;;;;;954327;147;27463;-79
2022/06/11 06:04:59;;;;;;;3.70;2.40;;;21.70;70.60;;;;;;954236;147;27359;-79
2022/06/11 06:07:25;;;;;;;3.30;2.35;;;22.10;70.20;;;;;;954126;147;27334;-79
2022/06/11 06:09:52;;;;;;;2.05;1.90;;;22.50;69.20;;;;;;954813;147;27390;-79
2022/06/11 06:12:19;;;;;;;2.52;2.33;;;22.90;68.00;;;;;;954014;147;27885;-79
2022/06/11 06:14:45;;;;;;;2.80;2.50;;;23.30;66.80;;;;;;953933;147;27386;-79
2022/06/11 06:17:12;;;;;;;2.55;2.20;;;23.50;65.70;;;;;;953700;147;27296;-79
2022/06/11 06:19:38;;;;;;;2.30;2.10;;;23.80;64.70;;;;;;954254;147;27338;-79
2022/06/11 06:22:05;;;;;;;1.90;1.80;;;24.00;63.70;;;;;;954068;147;27320;-79
2022/06/11 06:24:32;;;;;;;3.72;2.25;;;24.10;62.90;;;;;;954330;147;27395;-79
2022/06/11 06:26:58;;;;;;;2.83;2.00;;;24.20;62.40;;;;;;953889;147;27411;-79
2022/06/11 06:29:25;;;;;;;2.22;2.02;;;24.30;62.00;;;;;;954471;147;27302;-79
2022/06/11 06:31:51;;;;;;;3.05;2.30;;;24.40;61.50;;;;;;953900;147;27345;-79
2022/06/11 06:34:18;;;;;;;2.00;1.87;;;24.50;61.10;;;;;;953963;147;27334;-78
2022/06/11 06:36:45;;;;;;;2.83;2.15;;;24.50;60.70;;;;;;964956;145;27399;-79
2022/06/11 06:39:11;;;;;;;3.17;1.85;;;24.60;60.60;;;;;;966398;145;27308;-79
2022/06/11 06:41:38;;;;;;;1.90;1.80;;;24.60;60.50;;;;;;966686;145;27298;-79
2022/06/11 06:44:04;;;;;;;2.52;1.92;;;24.70;60.40;;;;;;966760;145;27334;-79
2022/06/11 06:46:31;;;;;;;2.15;2.05;;;24.80;60.20;;;;;;966369;145;27381;-79
2022/06/11 06:48:57;;;;;;;2.30;2.05;;;24.90;60.00;;;;;;966166;145;27337;-79
2022/06/11 06:51:24;;;;;;;2.02;1.90;;;24.90;59.90;;;;;;966446;145;27309;-79
2022/06/11 06:53:51;;;;;;;2.20;2.00;;;25.10;59.70;;;;;;966609;145;27395;-79
2022/06/11 06:56:17;;;;;;;2.00;1.80;;;25.20;59.60;;;;;;967019;145;27409;-79
2022/06/11 06:58:44;;;;;;;2.20;2.00;;;25.30;59.30;;;;;;966877;145;27437;-79
2022/06/11 07:01:10;;;;;;;3.30;2.00;;;25.40;59.00;;;;;;966573;145;28398;-79
2022/06/11 07:03:37;;;;;;;2.08;1.98;;;25.60;58.80;;;;;;966316;145;27728;-79
2022/06/11 07:06:04;;;;;;;1.75;1.65;;;25.70;58.50;;;;;;967007;145;27379;-79
2022/06/11 07:08:30;;;;;;;3.20;1.90;;;25.90;58.40;;;;;;966345;145;27309;-79
2022/06/11 07:10:57;;;;;;;2.12;1.70;;;26.10;58.30;;;;;;966872;145;27773;-79
2022/06/11 07:13:23;;;;;;;2.45;1.98;;;26.40;58.30;;;;;;967289;145;27333;-79
2022/06/11 07:15:50;;;;;;;2.20;1.50;;;26.80;59.00;;;;;;966493;145;27232;-79
2022/06/11 07:18:28;;;;;;;3.02;1.77;;;27.40;60.00;;;;;;966548;145;27323;-79
2022/06/11 07:20:55;;;;;;;1.92;1.72;;;28.30;60.50;;;;;;957628;145;27891;-78
2022/06/11 07:23:22;;;;;;;2.55;1.70;;;29.50;60.30;;;;;;966021;145;27338;-78
2022/06/11 07:25:48;;;;;;;2.72;1.62;;;30.60;59.30;;;;;;966048;145;27442;-78
2022/06/11 07:28:17;;;;;;;2.10;1.90;;;31.90;58.30;;;;;;965227;145;28533;-78
2022/06/11 07:30:44;;;;;;;3.05;1.72;;;33.10;57.10;;;;;;965586;145;27379;-78
2022/06/11 07:33:10;;;;;;;2.45;1.80;;;34.40;55.40;;;;;;966482;145;27415;-78
2022/06/11 07:35:37;;;;;;;3.37;2.05;;;35.50;53.70;;;;;;966176;145;27341;-78
2022/06/11 07:38:06;;;;;;;2.67;2.10;;;36.50;51.70;;;;;;944126;148;26215;-78
2022/06/11 07:40:33;;;;;;;2.62;2.00;;;37.50;50.30;;;;;;928411;151;26266;-78
2022/06/11 07:43:00;;;;;;;3.72;2.40;;;38.40;48.60;;;;;;944224;146;26232;-78
2022/06/11 07:45:26;;;;;;;3.10;1.75;;;39.10;47.00;;;;;;959150;146;26215;-79
2022/06/11 07:47:55;;;;;;;2.40;1.75;;;39.70;45.60;;;;;;960448;146;27394;-79
2022/06/11 07:50:27;;;;;;;2.52;2.10;;;40.30;44.40;;;;;;959472;146;27983;-79
2022/06/11 07:52:54;;;;;;;2.87;1.82;;;40.80;43.50;;;;;;959048;146;26322;-79
2022/06/11 07:55:21;;;;;;;2.35;1.60;;;41.30;42.30;;;;;;958796;146;26344;-79
2022/06/11 07:57:47;;;;;;;2.62;1.85;;;41.70;41.40;;;;;;960175;146;26259;-79
2022/06/11 08:00:14;;;;;;;2.72;1.60;;;42.00;40.40;;;;;;959711;146;27690;-79
2022/06/11 08:02:40;;;;;;;2.58;1.50;;;42.40;39.70;;;;;;959194;146;26231;-79
2022/06/11 08:05:07;;;;;;;2.02;1.35;;;42.70;39.00;;;;;;960687;146;26227;-79
2022/06/11 08:07:34;;;;;;;1.70;1.47;;;43.10;38.20;;;;;;960060;146;26215;-79
2022/06/11 08:10:02;;;;;;;2.17;1.32;;;43.40;37.30;;;;;;960658;146;27550;-79
2022/06/11 08:12:27;;;;;;;2.37;1.45;;;43.70;36.80;;;;;;959967;146;26323;-79
2022/06/11 08:14:56;;;;;;;2.30;1.67;;;44.00;36.40;;;;;;959771;146;26295;-79
2022/06/11 08:17:20;;;;;;;3.70;1.35;;;44.30;36.00;;;;;;960181;146;26259;-79
2022/06/11 08:19:47;;;;;;;3.12;1.50;;;44.60;35.30;;;;;;959784;146;26332;-79
2022/06/11 08:22:13;;;;;;;2.30;1.10;;;45.00;35.00;;;;;;960399;146;26243;-79
2022/06/11 08:24:40;;;;;;;2.45;1.20;;;45.30;34.50;;;;;;959837;146;26823;-79
2022/06/11 08:27:06;;;;;;;2.37;1.52;;;45.70;34.00;;;;;;959973;146;26227;-79
2022/06/11 08:29:33;;;;;;;2.35;1.17;;;46.00;33.30;;;;;;959438;146;26569;-79
2022/06/11 08:31:59;;;;;;;1.17;1.07;;;46.40;32.80;;;;;;960023;146;26291;-79
2022/06/11 08:34:26;;;;;;;1.35;1.20;;;46.80;32.10;;;;;;959855;146;26603;-80
2022/06/11 08:36:53;;;;;;;2.12;1.20;;;47.10;31.80;;;;;;956205;146;26297;-80
2022/06/11 08:39:19;;;;;;;2.62;1.50;;;47.40;31.30;;;;;;945726;148;26275;-80
2022/06/11 08:41:46;;;;;;;2.17;1.32;;;47.70;30.90;;;;;;969199;145;26206;-80
2022/06/11 08:44:12;;;;;;;3.30;1.50;;;48.00;30.30;;;;;;945513;148;26321;-80
2022/06/11 08:46:39;;;;;;;2.20;1.30;;;48.20;29.90;;;;;;946186;148;26303;-80
2022/06/11 08:49:08;;;;;;;1.42;1.07;;;48.40;29.50;;;;;;945948;148;26252;-80
2022/06/11 08:51:44;;;;;;;1.27;1.05;;;48.50;29.20;;;;;;945686;148;26269;-80
2022/06/11 08:54:13;;;;;;;1.02;0.98;;;48.70;29.10;;;;;;945730;148;26216;-80
2022/06/11 08:56:58;;;;;;;1.82;1.00;;;48.80;28.80;;;;;;942357;148;26180;-80
2022/06/11 08:59:54;;;;;;;2.33;1.15;;;48.90;28.40;;;;;;945641;148;26360;-80
2022/06/11 09:02:39;;;;;;;2.05;0.68;;;49.00;28.30;;;;;;945432;148;26278;-80
2022/06/11 09:05:15;;;;;;;2.50;0.88;;;49.10;28.10;;;;;;968326;145;26298;-80
2022/06/11 09:08:02;;;;;;;0.85;0.82;;;49.20;27.80;;;;;;968552;145;26191;-80
2022/06/11 09:10:56;;;;;;;2.05;1.00;;;49.30;26.80;;;;;;945955;148;26279;-80
2022/06/11 09:13:26;;;;;;;0.98;0.70;;;49.30;27.20;;;;;;945895;149;26238;-80
2022/06/11 09:16:07;;;;;;;1.37;0.85;;;49.50;27.30;;;;;;945623;151;26362;-80
2022/06/11 09:18:58;;;;;;;1.40;1.00;;;49.50;26.90;;;;;;945616;149;26616;-80
2022/06/11 09:21:33;;;;;;;1.95;0.80;;;49.50;26.40;;;;;;944776;150;26211;-80
2022/06/11 09:24:18;;;;;;;1.35;0.75;;;49.50;26.30;;;;;;944502;151;26327;-80
2022/06/11 09:26:56;;;;;;;1.72;1.12;;;49.30;26.00;;;;;;945932;151;26352;-80
2022/06/11 09:29:41;;;;;;;1.30;0.70;;;49.20;26.00;;;;;;946612;149;26331;-80
2022/06/11 09:32:14;;;;;;;0.95;0.60;;;49.10;25.90;;;;;;946139;150;27033;-80
2022/06/11 09:34:50;;;;;;;0.88;0.70;;;49.10;25.60;;;;;;944844;151;26668;-80
2022/06/11 09:37:26;;;;;;;1.15;0.72;;;49.10;25.50;;;;;;945091;149;26264;-80
2022/06/11 09:39:58;;;;;;;0.95;0.57;;;49.00;25.00;;;;;;943802;149;26176;-80
2022/06/11 09:42:27;;;;;;;0.50;0.40;;;48.90;25.10;;;;;;943084;149;26337;-80
2022/06/11 09:44:54;;;;;;;1.75;0.60;;;48.80;25.00;;;;;;933379;152;26287;-80
2022/06/11 09:47:26;;;;;;;1.50;0.70;;;48.70;25.00;;;;;;926025;151;27445;-79
2022/06/11 09:50:21;;;;;;;1.35;0.60;;;48.60;24.80;;;;;;943826;149;26237;-80
2022/06/11 09:53:12;;;;;;;0.78;0.68;;;48.40;24.40;;;;;;946020;149;26360;-80
2022/06/11 09:55:47;;;;;;;0.40;0.30;;;48.20;24.50;;;;;;944274;148;26262;-80
2022/06/11 09:58:22;;;;;;;1.57;0.80;;;47.80;24.40;;;;;;942404;149;26363;-80
2022/06/11 10:00:49;;;;;;;1.70;0.70;;;47.50;24.50;;;;;;943961;148;26266;-80
2022/06/11 10:06:11;;;;;;;1.82;0.80;;;46.60;24.50;;;;;;922439;151;26298;-80
2022/06/11 10:08:41;;;;;;;1.05;0.78;;;46.10;24.70;;;;;;944898;149;26389;-80
2022/06/11 10:11:07;;;;;;;2.75;0.80;;;45.60;25.10;;;;;;959782;146;26291;-80
2022/06/11 10:13:46;;;;;;;1.50;0.68;;;45.10;25.10;;;;;;958553;146;26246;-80
2022/06/11 10:16:31;;;;;;;1.17;0.75;;;44.80;25.30;;;;;;958913;146;26238;-80
2022/06/11 10:18:57;;;;;;;1.15;0.90;;;44.40;25.50;;;;;;958415;146;26207;-79
2022/06/11 10:21:25;;;;;;;1.70;0.70;;;44.10;25.70;;;;;;959802;146;26311;-80
2022/06/11 10:23:56;;;;;;;3.62;1.55;;;43.80;25.60;;;;;;960094;146;26368;-80
2022/06/11 10:26:25;;;;;;;0.93;0.80;;;43.40;25.60;;;;;;959127;146;26232;-79
2022/06/11 10:29:13;;;;;;;1.27;0.90;;;43.00;25.60;;;;;;959427;146;26243;-79
2022/06/11 10:31:49;;;;;;;1.45;0.82;;;42.60;25.80;;;;;;959007;149;26228;-79
2022/06/11 10:34:24;;;;;;;0.98;0.72;;;42.10;26.00;;;;;;935993;149;27335;-79
2022/06/11 10:37:18;;;;;;;1.25;0.98;;;41.60;26.20;;;;;;960237;146;26250;-79
2022/06/11 10:39:53;;;;;;;1.62;0.80;;;41.20;26.40;;;;;;966749;148;26254;-79
2022/06/11 10:42:19;;;;;;;1.82;0.90;;;40.70;26.60;;;;;;969917;147;27291;-79
2022/06/11 10:44:49;;;;;;;0.90;0.62;;;40.30;26.80;;;;;;971313;144;26291;-79
2022/06/11 10:47:16;;;;;;;1.70;1.12;;;40.00;26.80;;;;;;970808;147;26333;-79
2022/06/11 10:49:42;;;;;;;1.50;0.70;;;39.70;27.10;;;;;;970794;147;26208;-79
2022/06/11 10:52:36;;;;;;;1.57;1.10;;;39.40;27.10;;;;;;971321;147;26225;-79
2022/06/11 10:55:03;;;;;;;1.37;0.80;;;39.20;27.40;;;;;;971655;145;26229;-79
2022/06/11 10:57:29;;;;;;;0.70;0.70;;;38.90;27.40;;;;;;970719;147;27334;-79
2022/06/11 11:00:14;;;;;;;1.57;1.02;;;38.60;27.60;;;;;;970916;147;26245;-79
2022/06/11 11:02:59;;;;;;;0.68;0.68;;;38.30;27.80;;;;;;970746;147;27451;-79
2022/06/11 11:05:25;;;;;;;2.60;0.82;;;38.00;28.00;;;;;;969853;147;27349;-79
2022/06/11 11:07:52;;;;;;;1.40;0.70;;;37.80;28.20;;;;;;971255;145;27435;-79
2022/06/11 11:10:21;;;;;;;4.70;0.85;;;37.60;28.20;;;;;;970173;144;27409;-79
2022/06/11 11:12:48;;;;;;;0.50;0.50;;;37.40;28.60;;;;;;970753;145;27325;-79
2022/06/11 11:15:14;;;;;;;1.72;0.72;;;37.30;28.90;;;;;;970520;147;27349;-79
2022/06/11 11:17:44;;;;;;;1.85;0.68;;;37.20;28.80;;;;;;971240;145;27337;-79
2022/06/11 11:20:35;;;;;;;1.37;0.90;;;37.10;29.00;;;;;;971432;145;27309;-79
2022/06/11 11:22:58;;;;;;;1.10;0.75;;;37.00;29.00;;;;;;970325;147;27333;-79
2022/06/11 11:25:25;;;;;;;1.30;0.80;;;36.90;29.00;;;;;;969514;147;27318;-79
2022/06/11 11:27:52;;;;;;;1.15;1.00;;;36.80;29.10;;;;;;970822;145;27331;-79
2022/06/11 11:30:18;;;;;;;1.45;1.12;;;36.70;29.00;;;;;;971527;145;27373;-79
2022/06/11 11:32:44;;;;;;;0.90;0.65;;;36.70;29.20;;;;;;970756;147;27294;-79
2022/06/11 11:35:17;;;;;;;2.98;0.85;;;36.60;29.30;;;;;;970824;145;27294;-79
2022/06/11 11:37:43;;;;;;;0.90;0.72;;;36.50;29.20;;;;;;970843;147;27371;-79
2022/06/11 11:40:25;;;;;;;3.47;0.90;;;36.40;29.40;;;;;;964063;145;27350;-79
2022/06/11 11:42:52;;;;;;;1.17;0.60;;;36.30;29.60;;;;;;963638;145;27370;-79
2022/06/11 11:45:24;;;;;;;1.92;0.70;;;36.20;29.30;;;;;;943336;148;27313;-79
2022/06/11 11:47:51;;;;;;;1.65;0.90;;;36.10;29.30;;;;;;944239;152;27425;-79
2022/06/11 11:50:35;;;;;;;2.42;0.70;;;35.80;29.20;;;;;;927141;154;27344;-79
2022/06/11 11:53:05;;;;;;;1.82;0.62;;;35.60;29.40;;;;;;944180;151;27449;-79
2022/06/11 11:55:34;;;;;;;0.90;0.90;;;35.30;29.90;;;;;;943442;150;27424;-79
2022/06/11 11:58:16;;;;;;;0.88;0.80;;;35.00;30.60;;;;;;943171;151;27325;-79
2022/06/11 12:00:45;;;;;;;2.08;0.88;;;34.90;30.10;;;;;;959294;147;27405;-79
2022/06/11 12:03:12;;;;;;;1.72;0.90;;;34.60;30.10;;;;;;960342;147;27400;-79
2022/06/11 12:05:39;;;;;;;1.30;1.07;;;34.50;30.40;;;;;;954404;149;27445;-79
2022/06/11 12:08:05;;;;;;;0.78;0.78;;;34.40;30.90;;;;;;958218;147;27359;-79
2022/06/11 12:10:37;;;;;;;1.82;1.05;;;34.20;31.10;;;;;;958475;146;27332;-79
2022/06/11 12:13:04;;;;;;;0.82;0.70;;;34.20;31.40;;;;;;959300;149;27746;-79
2022/06/11 12:15:30;;;;;;;2.10;0.88;;;34.20;31.50;;;;;;956481;147;27339;-79
2022/06/11 12:18:12;;;;;;;1.80;0.88;;;34.10;31.50;;;;;;959450;149;27330;-79
2022/06/11 12:20:38;;;;;;;1.17;0.90;;;34.10;31.50;;;;;;959762;146;27395;-79
2022/06/11 12:23:05;;;;;;;0.95;0.70;;;34.10;31.30;;;;;;958902;149;27315;-79
2022/06/11 12:25:49;;;;;;;2.02;0.82;;;34.00;31.10;;;;;;958742;148;27269;-79
2022/06/11 12:28:16;;;;;;;0.70;0.70;;;34.00;31.20;;;;;;959046;149;27330;-79
2022/06/11 12:30:43;;;;;;;2.10;0.78;;;33.90;31.30;;;;;;959840;146;27354;-79
2022/06/11 12:33:12;;;;;;;2.08;0.80;;;33.90;31.30;;;;;;959344;149;27295;-79
2022/06/11 12:35:51;;;;;;;0.85;0.80;;;33.80;31.50;;;;;;959861;147;27311;-79
2022/06/11 12:38:20;;;;;;;0.80;0.80;;;33.70;31.50;;;;;;958615;147;27306;-79
2022/06/11 12:41:11;;;;;;;1.22;0.82;;;33.60;31.60;;;;;;950430;149;27443;-79
2022/06/11 12:43:38;;;;;;;0.88;0.60;;;33.60;31.80;;;;;;945836;151;27380;-79
2022/06/11 12:46:07;;;;;;;2.05;0.80;;;33.60;31.80;;;;;;967673;148;27334;-79
2022/06/11 12:48:49;;;;;;;1.98;1.15;;;33.60;32.00;;;;;;944512;151;27687;-80
2022/06/11 12:51:18;;;;;;;2.15;1.30;;;33.50;31.80;;;;;;944390;151;27628;-79
2022/06/11 12:53:50;;;;;;;0.85;0.60;;;33.50;32.00;;;;;;946236;149;27498;-79
2022/06/11 12:56:50;;;;;;;2.42;1.20;;;33.40;32.10;;;;;;944811;151;27341;-79
2022/06/11 13:02:23;;;;;;;1.35;0.82;;;33.20;32.00;;;;;;933948;152;28590;-76
2022/06/11 13:05:05;;;;;;;3.05;1.00;;;33.10;32.10;;;;;;928057;152;27335;-76
2022/06/11 13:07:53;;;;;;;1.17;0.80;;;33.00;32.50;;;;;;928167;152;27359;-76
2022/06/11 13:10:22;;;;;;;3.98;0.98;;;33.00;32.50;;;;;;930895;152;27351;-75